Pagina principale
METAR-TAF:

METAR-TAF

Aeroporti :

N'Djamena, Ciad

Aeroporto di N'Djamena-Hassan Djamous

latitudine: 12-08N, longitudine: 015-02E, altezza: 295 m

Osservazione

Il bollettino è stato emesso 1 ora e 8 minuti fa, alle 04:00 UTC
Vento 7 kt da nord/nord-est
Temperature 22°C
Umidità 21%
Pressione 1011 hPa
Visibilità: 1600 m
polvere diffusa

METAR: FTTJ 180400Z 03007KT 1600 DU NSC 22/M01 Q1011 NOSIG

Ora: 06:08 (05:08 UTC)

Previsione

Il bollettino è stato emesso 6 ore e 3 minuti fa, alle 23:05 UTC
Previsione valida dal 18 alle 00 UTC al 19 alle 06 UTC
Vento 11 kt da nord
Visibilità: 0800 m
polvere diffusa
Evoluzione graduale
dal 18 alle 02 UTC al 18 alle 04 UTC
Visibilità: 2000 m
polvere diffusa
Evoluzione graduale
dal 18 alle 09 UTC al 18 alle 11 UTC
Visibilità: 4000 m
polvere diffusa

TAF: FTTJ 172305Z 1800/1906 01011KT 0800 DU NSC BECMG 1802/1804 2000 DU BECMG 1809/1811 4000 DU

Osservazioni e previsioni meteorologiche di più di 4000 aeroporti (messaggi METAR e TAF).

Le stazioni disponibili sono rappresentate dai dischi gialli e rossi sulla carta.

Puntare il mouse per vedere il nome della stazione.

Clicca sopra per visualizzare le osservazioni e previsioni meteorologiche.

Per cambiare la mappa : fare clic sui pulsanti verdi con una croce nera per ingrandire, il pulsante verde con un trattino per diminuire, o sulla freccia verde per le mappe adiacenti.


METAR-TAF: